Time;durP1;ratioP1;P1;durP2;ratioP2;P2;SDS_P1;SDS_P2;PMS_P1;PMS_P2;Temp;Humidity;BMP_temperature;BMP_pressure;BME280_temperature;BME280_humidity;BME280_pressure;Samples;Min_cycle;Max_cycle;Signal;HPM_P1;HPM_P2
2022/01/23 00:00:37;;;;;;;;;;;;;;;5.29;92.88184;103624.3;;;;-77
2022/01/23 00:01:08;;;;;;;5.9;2.3;;;;;;;;;;;;;-76
2022/01/23 00:05:41;;;;;;;;;;;;;;;5.29;92.78125;103620.5;;;;-77
2022/01/23 00:10:37;;;;;;;;;;;;;;;5.29;92.74023;103625.9;;;;-76
2022/01/23 00:20:37;;;;;;;;;;;;;;;5.29;92.69434;103624.2;;;;-76
2022/01/23 00:30:39;;;;;;;;;;;;;;;5.29;92.6748;103627.7;;;;-77
2022/01/23 00:31:00;;;;;;;6;2.5;;;;;;;;;;;;;-77
2022/01/23 00:35:39;;;;;;;;;;;;;;;5.28;92.74902;103623.5;;;;-79
2022/01/23 00:40:38;;;;;;;;;;;;;;;5.28;92.74707;103625.6;;;;-76
2022/01/23 00:45:43;;;;;;;;;;;;;;;5.28;92.79102;103626.3;;;;-77
2022/01/23 00:50:38;;;;;;;;;;;;;;;5.27;92.7998;103631.1;;;;-78
2022/01/23 00:55:38;;;;;;;;;;;;;;;5.27;92.76855;103635.6;;;;-76
2022/01/23 01:00:38;;;;;;;;;;;;;;;5.25;92.79785;103639.4;;;;-76
2022/01/23 01:00:58;;;;;;;4.9;2.4;;;;;;;;;;;;;-77
2022/01/23 01:05:37;;;;;;;;;;;;;;;5.25;92.78516;103644.7;;;;-77
2022/01/23 01:10:43;;;;;;;;;;;;;;;5.24;92.84961;103640.6;;;;-78
2022/01/23 01:15:57;;;;;;;;;;;;;;;5.24;92.77246;103636.3;;;;-78
2022/01/23 01:30:46;;;;;;;;;;;;;;;5.22;92.85742;103633.9;;;;-79
2022/01/23 01:31:05;;;;;;;4.3;2.2;;;;;;;;;;;;;-79
2022/01/23 01:35:42;;;;;;;;;;;;;;;5.22;92.91016;103639.4;;;;-78
2022/01/23 01:40:37;;;;;;;;;;;;;;;5.22;92.86621;103635.8;;;;-77
2022/01/23 01:45:40;;;;;;;;;;;;;;;5.21;92.8291;103633;;;;-77
2022/01/23 01:50:43;;;;;;;;;;;;;;;5.19;92.80566;103622.1;;;;-78
2022/01/23 01:55:42;;;;;;;;;;;;;;;5.18;92.80176;103621.2;;;;-78
2022/01/23 02:00:46;;;;;;;;;;;;;;;5.15;92.80664;103630.9;;;;-78
2022/01/23 02:00:59;;;;;;;3.7;2;;;;;;;;;;;;;-78
2022/01/23 02:10:38;;;;;;;;;;;;;;;5.12;92.77051;103638.2;;;;-78
2022/01/23 02:16:04;;;;;;;;;;;;;;;5.11;92.68848;103640.4;;;;-78
2022/01/23 02:50:47;;;;;;;;;;;;;;;4.95;92.71191;103615.8;;;;-77
2022/01/23 02:55:42;;;;;;;;;;;;;;;4.93;92.72754;103617.5;;;;-77
2022/01/23 03:00:48;;;;;;;;;;;;;;;4.92;92.76855;103612.9;;;;-77
2022/01/23 03:01:09;;;;;;;3.5;1.7;;;;;;;;;;;;;-77
2022/01/23 03:05:40;;;;;;;;;;;;;;;4.9;92.77637;103607.1;;;;-76
2022/01/23 03:10:41;;;;;;;;;;;;;;;4.89;92.7959;103607;;;;-78
2022/01/23 03:15:57;;;;;;;;;;;;;;;4.89;92.77441;103609.6;;;;-78
2022/01/23 03:30:50;;;;;;;;;;;;;;;4.85;92.85156;103622.7;;;;-78
2022/01/23 03:31:07;;;;;;;2.5;1.3;;;;;;;;;;;;;-78
2022/01/23 03:35:37;;;;;;;;;;;;;;;4.84;92.87109;103619.7;;;;-78
2022/01/23 03:40:37;;;;;;;;;;;;;;;4.84;92.86035;103624.5;;;;-77
2022/01/23 03:45:56;;;;;;;;;;;;;;;4.82;92.92188;103622.5;;;;-78
2022/01/23 03:50:38;;;;;;;;;;;;;;;4.8;92.88477;103626.7;;;;-78
2022/01/23 03:55:38;;;;;;;;;;;;;;;4.79;92.90723;103629.1;;;;-78
2022/01/23 04:00:37;;;;;;;;;;;;;;;4.78;92.90234;103632.5;;;;-78
2022/01/23 04:00:55;;;;;;;2.7;1.2;;;;;;;;;;;;;-78
2022/01/23 04:05:37;;;;;;;;;;;;;;;4.77;92.96387;103627.5;;;;-78
2022/01/23 04:10:38;;;;;;;;;;;;;;;4.76;92.95117;103633.8;;;;-78
2022/01/23 04:15:44;;;;;;;;;;;;;;;4.75;92.91895;103629.4;;;;-78
2022/01/23 04:20:45;;;;;;;;;;;;;;;4.75;92.94922;103635.7;;;;-78
2022/01/23 04:45:14;;;;;;;;;;;;;;;4.73;93;103638.5;;;;-78
2022/01/23 04:45:40;;;;;;;;;;;;;;;4.72;93.05469;103640.2;;;;-78
2022/01/23 05:00:48;;;;;;;;;;;;;;;4.71;93.06152;103649.5;;;;-77
2022/01/23 05:01:02;;;;;;;2.3;1.1;;;;;;;;;;;;;-77
2022/01/23 05:05:37;;;;;;;;;;;;;;;4.7;93.11328;103643.4;;;;-78
2022/01/23 05:10:37;;;;;;;;;;;;;;;4.7;93.08105;103655.3;;;;-78
2022/01/23 05:15:38;;;;;;;;;;;;;;;4.69;93.08984;103654.8;;;;-78
2022/01/23 05:20:38;;;;;;;;;;;;;;;4.69;93.11133;103658;;;;-78
2022/01/23 05:25:38;;;;;;;;;;;;;;;4.68;93.06641;103654.2;;;;-78
2022/01/23 05:30:40;;;;;;;;;;;;;;;4.68;93.08789;103660.4;;;;-77
2022/01/23 05:30:53;;;;;;;2.3;0.9;;;;;;;;;;;;;-78
2022/01/23 05:35:37;;;;;;;;;;;;;;;4.68;93.09668;103661.8;;;;-76
2022/01/23 05:40:39;;;;;;;;;;;;;;;4.67;93.10742;103662.5;;;;-78
2022/01/23 05:45:41;;;;;;;;;;;;;;;4.67;93.17285;103650.4;;;;-77
2022/01/23 05:50:37;;;;;;;;;;;;;;;4.66;93.18164;103641.8;;;;-79
2022/01/23 05:55:38;;;;;;;;;;;;;;;4.66;93.16895;103637.6;;;;-78
2022/01/23 06:00:38;;;;;;;;;;;;;;;4.65;93.19922;103638.9;;;;-78
2022/01/23 06:00:53;;;;;;;2.2;0.9;;;;;;;;;;;;;-78
2022/01/23 06:05:37;;;;;;;;;;;;;;;4.65;93.15625;103639.6;;;;-79
2022/01/23 06:10:53;;;;;;;;;;;;;;;4.64;93.21094;103639.4;;;;-79
2022/01/23 06:15:37;;;;;;;;;;;;;;;4.63;93.19531;103641.6;;;;-78
2022/01/23 06:20:38;;;;;;;;;;;;;;;4.64;93.20898;103646.5;;;;-78
2022/01/23 06:25:37;;;;;;;;;;;;;;;4.63;93.20703;103646.8;;;;-78
2022/01/23 06:30:41;;;;;;;;;;;;;;;4.63;93.21777;103647.9;;;;-78
2022/01/23 06:30:52;;;;;;;2.6;0.8;;;;;;;;;;;;;-78
2022/01/23 06:35:38;;;;;;;;;;;;;;;4.61;93.24609;103644.9;;;;-78
2022/01/23 06:40:38;;;;;;;;;;;;;;;4.61;93.26953;103649.4;;;;-78
2022/01/23 06:45:38;;;;;;;;;;;;;;;4.62;93.25879;103655.4;;;;-77
2022/01/23 06:50:37;;;;;;;;;;;;;;;4.61;93.26758;103655.9;;;;-78
2022/01/23 06:55:37;;;;;;;;;;;;;;;4.61;93.23535;103662.6;;;;-78
2022/01/23 07:00:37;;;;;;;;;;;;;;;4.61;93.24609;103665.6;;;;-77
2022/01/23 07:00:52;;;;;;;1.9;1;;;;;;;;;;;;;-77
2022/01/23 07:05:37;;;;;;;;;;;;;;;4.6;93.22266;103670.2;;;;-77
2022/01/23 07:10:37;;;;;;;;;;;;;;;4.59;93.22266;103676.9;;;;-77
2022/01/23 07:15:37;;;;;;;;;;;;;;;4.59;93.22266;103676.3;;;;-78
2022/01/23 07:20:37;;;;;;;;;;;;;;;4.59;93.24219;103683.9;;;;-79
2022/01/23 07:25:37;;;;;;;;;;;;;;;4.59;93.22949;103689.8;;;;-78
2022/01/23 07:30:41;;;;;;;;;;;;;;;4.59;93.25098;103698.5;;;;-78
2022/01/23 07:30:55;;;;;;;2.6;1.3;;;;;;;;;;;;;-79
2022/01/23 07:35:37;;;;;;;;;;;;;;;4.59;93.24414;103703.6;;;;-77
2022/01/23 07:40:37;;;;;;;;;;;;;;;4.58;93.23828;103706.5;;;;-78
2022/01/23 07:45:37;;;;;;;;;;;;;;;4.59;93.25293;103716.3;;;;-77
2022/01/23 07:50:38;;;;;;;;;;;;;;;4.59;93.26172;103721.4;;;;-77
2022/01/23 07:55:37;;;;;;;;;;;;;;;4.59;93.29688;103719.6;;;;-78
2022/01/23 08:00:37;;;;;;;;;;;;;;;4.59;93.3291;103723.1;;;;-79
2022/01/23 08:00:51;;;;;;;3.2;1.5;;;;;;;;;;;;;-79
2022/01/23 08:05:37;;;;;;;;;;;;;;;4.6;93.32031;103723.1;;;;-78
2022/01/23 08:10:38;;;;;;;;;;;;;;;4.6;93.26563;103721;;;;-78
2022/01/23 08:15:38;;;;;;;;;;;;;;;4.61;93.29004;103728.5;;;;-78
2022/01/23 08:20:37;;;;;;;;;;;;;;;4.63;93.2832;103733.8;;;;-77
2022/01/23 08:25:38;;;;;;;;;;;;;;;4.65;93.27734;103739.5;;;;-79
2022/01/23 08:30:37;;;;;;;;;;;;;;;4.68;93.17285;103740.4;;;;-76
2022/01/23 08:30:51;;;;;;;3.9;1.5;;;;;;;;;;;;;-77
2022/01/23 08:35:37;;;;;;;;;;;;;;;4.7;93.11328;103736.1;;;;-78
2022/01/23 08:41:49;;;;;;;;;;;;;;;4.73;93.06543;103741.5;;;;-79
2022/01/23 08:45:38;;;;;;;;;;;;;;;4.77;92.97559;103745.2;;;;-77
2022/01/23 08:50:37;;;;;;;;;;;;;;;4.8;92.92871;103752.3;;;;-79
2022/01/23 08:55:37;;;;;;;;;;;;;;;4.84;92.93848;103753.4;;;;-78
2022/01/23 09:00:37;;;;;;;;;;;;;;;4.88;92.90039;103754.5;;;;-80
2022/01/23 09:00:50;;;;;;;3.8;1.9;;;;;;;;;;;;;-79
2022/01/23 09:05:37;;;;;;;;;;;;;;;4.93;92.8252;103750;;;;-78
2022/01/23 09:10:41;;;;;;;;;;;;;;;4.96;92.75684;103747.3;;;;-78
2022/01/23 09:15:37;;;;;;;;;;;;;;;5.01;92.72363;103742.4;;;;-78
2022/01/23 09:20:37;;;;;;;;;;;;;;;5.05;92.67676;103753.2;;;;-81
2022/01/23 09:25:37;;;;;;;;;;;;;;;5.09;92.69727;103749.6;;;;-79
2022/01/23 09:30:39;;;;;;;;;;;;;;;5.13;92.68359;103748.3;;;;-78
2022/01/23 09:30:51;;;;;;;5;2.3;;;;;;;;;;;;;-80
2022/01/23 09:35:38;;;;;;;;;;;;;;;5.16;92.64551;103747.8;;;;-79
2022/01/23 09:40:38;;;;;;;;;;;;;;;5.2;92.6123;103756.4;;;;-79
2022/01/23 09:45:38;;;;;;;;;;;;;;;5.25;92.60156;103763.7;;;;-79
2022/01/23 09:50:37;;;;;;;;;;;;;;;5.29;92.61133;103772.3;;;;-78
2022/01/23 09:55:37;;;;;;;;;;;;;;;5.34;92.58887;103774.4;;;;-79
2022/01/23 10:00:37;;;;;;;;;;;;;;;5.39;92.54395;103776.2;;;;-78
2022/01/23 10:00:50;;;;;;;6.1;2.6;;;;;;;;;;;;;-77
2022/01/23 10:05:37;;;;;;;;;;;;;;;5.43;92.53125;103776.5;;;;-79
2022/01/23 10:10:40;;;;;;;;;;;;;;;5.49;92.4873;103772;;;;-78
2022/01/23 10:15:37;;;;;;;;;;;;;;;5.54;92.4873;103769.6;;;;-80
2022/01/23 10:20:37;;;;;;;;;;;;;;;5.6;92.41406;103769.5;;;;-79
2022/01/23 10:25:40;;;;;;;;;;;;;;;5.66;92.45801;103764.5;;;;-78
2022/01/23 10:30:40;;;;;;;;;;;;;;;5.72;92.41797;103762.9;;;;-77
2022/01/23 10:30:54;;;;;;;6.4;2.9;;;;;;;;;;;;;-77
2022/01/23 10:35:38;;;;;;;;;;;;;;;5.79;92.36816;103769.8;;;;-79
2022/01/23 10:40:47;;;;;;;;;;;;;;;5.86;92.30664;103770.5;;;;-79
2022/01/23 10:50:37;;;;;;;;;;;;;;;6.01;92.21777;103750.4;;;;-77
2022/01/23 10:55:38;;;;;;;;;;;;;;;6.09;92.11523;103754.1;;;;-79
2022/01/23 11:00:38;;;;;;;;;;;;;;;6.17;92.03223;103747.7;;;;-78
2022/01/23 11:00:50;;;;;;;7.9;3.4;;;;;;;;;;;;;-79
2022/01/23 11:05:41;;;;;;;;;;;;;;;6.25;92.02832;103740.4;;;;-78
2022/01/23 11:10:37;;;;;;;;;;;;;;;6.32;91.90137;103739.3;;;;-79
2022/01/23 11:20:39;;;;;;;;;;;;;;;6.47;91.74902;103730.6;;;;-80
2022/01/23 11:25:39;;;;;;;;;;;;;;;6.54;91.64355;103726.7;;;;-79
2022/01/23 11:30:46;;;;;;;;;;;;;;;6.63;91.55176;103722.5;;;;-78
2022/01/23 11:30:57;;;;;;;13.3;4.7;;;;;;;;;;;;;-78
2022/01/23 11:35:37;;;;;;;;;;;;;;;6.7;91.44531;103728.8;;;;-78
2022/01/23 11:50:34;;;;;;;;;;;;;;;6.77;91.28516;103721;;;;-78
2022/01/23 11:51:02;;;;;;;;;;;;;;;6.89;91.11523;103714.1;;;;-79
2022/01/23 11:55:39;;;;;;;;;;;;;;;6.94;91.09375;103714;;;;-78
2022/01/23 12:00:40;;;;;;;;;;;;;;;7;90.97266;103710.7;;;;-77
2022/01/23 12:00:50;;;;;;;11.3;5.4;;;;;;;;;;;;;-77
2022/01/23 12:05:42;;;;;;;;;;;;;;;7.05;90.88574;103708.2;;;;-80
2022/01/23 12:10:51;;;;;;;;;;;;;;;7.1;90.89453;103707.2;;;;-81
2022/01/23 12:20:40;;;;;;;;;;;;;;;7.17;90.85547;103704;;;;-78
2022/01/23 12:25:43;;;;;;;;;;;;;;;7.2;90.82813;103700.3;;;;-79
2022/01/23 12:30:38;;;;;;;;;;;;;;;7.22;91.01953;103694.5;;;;-78
2022/01/23 12:30:50;;;;;;;18.7;7.2;;;;;;;;;;;;;-79
2022/01/23 12:35:45;;;;;;;;;;;;;;;7.23;91.13086;103695.2;;;;-79
2022/01/23 12:40:41;;;;;;;;;;;;;;;7.24;90.96875;103693.2;;;;-79
2022/01/23 12:45:55;;;;;;;;;;;;;;;7.26;91.19336;103684.6;;;;-78
2022/01/23 12:50:50;;;;;;;;;;;;;;;7.28;91.44727;103683.6;;;;-79
2022/01/23 12:55:37;;;;;;;;;;;;;;;7.3;91.44043;103679.1;;;;-79
2022/01/23 13:00:37;;;;;;;;;;;;;;;7.32;91.63184;103675.3;;;;-80
2022/01/23 13:00:49;;;;;;;18.3;8;;;;;;;;;;;;;-78
2022/01/23 13:05:37;;;;;;;;;;;;;;;7.34;91.54883;103674;;;;-78
2022/01/23 13:10:55;;;;;;;;;;;;;;;7.37;91.59766;103671.6;;;;-78
2022/01/23 13:16:16;;;;;;;;;;;;;;;7.39;91.57031;103669.3;;;;-79
2022/01/23 13:30:39;;;;;;;;;;;;;;;7.42;91.7627;103656.6;;;;-77
2022/01/23 13:30:56;;;;;;;17.2;8.2;;;;;;;;;;;;;-77
2022/01/23 13:35:39;;;;;;;;;;;;;;;7.42;91.82813;103657.9;;;;-77
2022/01/23 13:40:41;;;;;;;;;;;;;;;7.41;91.81543;103648;;;;-78
2022/01/23 14:00:37;;;;;;;;;;;;;;;7.38;91.8623;103647.7;;;;-77
2022/01/23 14:00:49;;;;;;;21.3;8.3;;;;;;;;;;;;;-77
2022/01/23 14:05:39;;;;;;;;;;;;;;;7.38;91.88379;103651.8;;;;-77
2022/01/23 14:10:40;;;;;;;;;;;;;;;7.39;91.91016;103651.6;;;;-78
2022/01/23 14:15:37;;;;;;;;;;;;;;;7.38;91.96289;103646.1;;;;-77
2022/01/23 14:20:39;;;;;;;;;;;;;;;7.37;91.96973;103648.5;;;;-80
2022/01/23 14:25:37;;;;;;;;;;;;;;;7.36;92.00098;103647.7;;;;-78
2022/01/23 14:30:38;;;;;;;;;;;;;;;7.34;92.00781;103643.2;;;;-79
2022/01/23 14:30:50;;;;;;;19.3;8.6;;;;;;;;;;;;;-78
2022/01/23 14:35:37;;;;;;;;;;;;;;;7.33;92.02832;103644.6;;;;-78
2022/01/23 14:40:37;;;;;;;;;;;;;;;7.32;92.01465;103645.6;;;;-78
2022/01/23 14:45:38;;;;;;;;;;;;;;;7.31;92.07715;103643.8;;;;-78
2022/01/23 14:50:39;;;;;;;;;;;;;;;7.3;92.11914;103647.8;;;;-79
2022/01/23 14:55:37;;;;;;;;;;;;;;;7.28;92.17188;103643.3;;;;-78
2022/01/23 15:00:38;;;;;;;;;;;;;;;7.26;92.17871;103645.9;;;;-79
2022/01/23 15:00:49;;;;;;;21.1;9.1;;;;;;;;;;;;;-78
2022/01/23 15:05:38;;;;;;;;;;;;;;;7.25;92.19629;103639.7;;;;-79
2022/01/23 15:10:37;;;;;;;;;;;;;;;7.23;92.16016;103639.8;;;;-78
2022/01/23 15:15:37;;;;;;;;;;;;;;;7.2;92.13184;103641.1;;;;-78
2022/01/23 15:20:37;;;;;;;;;;;;;;;7.18;92.12695;103644.5;;;;-77
2022/01/23 15:25:38;;;;;;;;;;;;;;;7.15;92.12012;103643.1;;;;-77
2022/01/23 15:30:37;;;;;;;;;;;;;;;7.12;92.04883;103645;;;;-78
2022/01/23 15:30:49;;;;;;;17.4;8.5;;;;;;;;;;;;;-78
2022/01/23 15:35:48;;;;;;;;;;;;;;;;;;;;;
2022/01/23 15:40:39;;;;;;;;;;;;;;;7.07;91.89551;103640.5;;;;-78
2022/01/23 15:45:37;;;;;;;;;;;;;;;7.03;91.78027;103639.7;;;;-81
2022/01/23 15:50:40;;;;;;;;;;;;;;;6.99;91.80371;103637.7;;;;-80
2022/01/23 15:55:38;;;;;;;;;;;;;;;6.96;91.86133;103641.4;;;;-79
2022/01/23 16:00:37;;;;;;;;;;;;;;;6.93;91.78809;103644;;;;-78
2022/01/23 16:00:51;;;;;;;19.8;8.7;;;;;;;;;;;;;-77
2022/01/23 16:05:40;;;;;;;;;;;;;;;6.9;91.83691;103644;;;;-79
2022/01/23 16:10:37;;;;;;;;;;;;;;;6.85;91.93652;103643.9;;;;-78
2022/01/23 16:15:42;;;;;;;;;;;;;;;6.81;91.79785;103644.4;;;;-79
2022/01/23 16:20:40;;;;;;;;;;;;;;;6.76;91.87598;103648.2;;;;-80
2022/01/23 16:25:39;;;;;;;;;;;;;;;6.72;91.93164;103649.8;;;;-80
2022/01/23 16:30:51;;;;;;;;;;;;;;;6.66;91.94238;103654;;;;-79
2022/01/23 16:31:07;;;;;;;15.8;7.9;;;;;;;;;;;;;-79
2022/01/23 16:35:44;;;;;;;;;;;;;;;6.62;91.87793;103659.3;;;;-79
2022/01/23 16:40:38;;;;;;;;;;;;;;;6.58;91.90039;103659.2;;;;-79
2022/01/23 16:45:37;;;;;;;;;;;;;;;6.52;91.94434;103658.4;;;;-81
2022/01/23 16:50:38;;;;;;;;;;;;;;;6.49;91.64355;103667.6;;;;-79
2022/01/23 16:55:37;;;;;;;;;;;;;;;6.47;91.79199;103674.2;;;;-80
2022/01/23 17:00:37;;;;;;;;;;;;;;;6.43;91.87012;103677.8;;;;-77
2022/01/23 17:00:50;;;;;;;22.7;8.8;;;;;;;;;;;;;-77
2022/01/23 17:05:41;;;;;;;;;;;;;;;6.41;92.10645;103683.4;;;;-78
2022/01/23 17:10:37;;;;;;;;;;;;;;;6.38;92.27539;103678.8;;;;-79
2022/01/23 17:15:37;;;;;;;;;;;;;;;6.36;92.31543;103672.1;;;;-79
2022/01/23 17:20:37;;;;;;;;;;;;;;;6.34;92.37695;103670.2;;;;-79
2022/01/23 17:25:37;;;;;;;;;;;;;;;6.31;92.41113;103672.9;;;;-79
2022/01/23 17:30:37;;;;;;;;;;;;;;;6.28;92.43945;103672.9;;;;-79
2022/01/23 17:30:48;;;;;;;21.2;9.5;;;;;;;;;;;;;-78
2022/01/23 17:35:37;;;;;;;;;;;;;;;6.25;92.46484;103670.8;;;;-79
2022/01/23 17:40:37;;;;;;;;;;;;;;;6.24;92.47363;103667.7;;;;-81
2022/01/23 17:45:47;;;;;;;;;;;;;;;6.2;92.50977;103669.5;;;;-79
2022/01/23 17:50:42;;;;;;;;;;;;;;;6.18;92.52539;103666.9;;;;-79
2022/01/23 17:55:37;;;;;;;;;;;;;;;6.15;92.52148;103667.4;;;;-78
2022/01/23 18:00:37;;;;;;;;;;;;;;;6.13;92.53906;103663.5;;;;-79
2022/01/23 18:00:47;;;;;;;20.1;9.1;;;;;;;;;;;;;-78
2022/01/23 18:05:38;;;;;;;;;;;;;;;6.12;92.49219;103665.2;;;;-78
2022/01/23 18:10:37;;;;;;;;;;;;;;;6.09;92.50781;103667.2;;;;-79
2022/01/23 18:15:37;;;;;;;;;;;;;;;6.06;92.5332;103669.2;;;;-79
2022/01/23 18:20:37;;;;;;;;;;;;;;;6.03;92.58203;103671.2;;;;-79
2022/01/23 18:25:44;;;;;;;;;;;;;;;6.01;92.56836;103674.4;;;;-78
2022/01/23 18:30:37;;;;;;;;;;;;;;;5.99;92.56348;103671.2;;;;-80
2022/01/23 18:30:56;;;;;;;19;9;;;;;;;;;;;;;-80
2022/01/23 18:35:37;;;;;;;;;;;;;;;5.96;92.56836;103673.8;;;;-79
2022/01/23 18:40:37;;;;;;;;;;;;;;;5.93;92.5498;103669.4;;;;-78
2022/01/23 18:45:39;;;;;;;;;;;;;;;5.9;92.52148;103667.4;;;;-77
2022/01/23 18:50:37;;;;;;;;;;;;;;;5.87;92.43945;103672.4;;;;-78
2022/01/23 18:55:38;;;;;;;;;;;;;;;5.85;92.49902;103670.6;;;;-78
2022/01/23 19:00:41;;;;;;;;;;;;;;;5.82;92.38477;103670.7;;;;-82
2022/01/23 19:00:50;;;;;;;20.6;9.5;;;;;;;;;;;;;-82
2022/01/23 19:05:38;;;;;;;;;;;;;;;5.79;92.37012;103669.9;;;;-79
2022/01/23 19:10:39;;;;;;;;;;;;;;;5.76;92.3623;103668.4;;;;-78
2022/01/23 19:15:38;;;;;;;;;;;;;;;5.75;92.3252;103666.3;;;;-79
2022/01/23 19:20:37;;;;;;;;;;;;;;;5.71;92.28516;103665.2;;;;-77
2022/01/23 19:25:37;;;;;;;;;;;;;;;5.69;92.38965;103661.1;;;;-79
2022/01/23 19:30:40;;;;;;;;;;;;;;;5.67;92.34277;103664.3;;;;-85
2022/01/23 19:30:53;;;;;;;18.9;9.3;;;;;;;;;;;;;-85
2022/01/23 19:35:38;;;;;;;;;;;;;;;5.65;92.43457;103657.2;;;;-81
2022/01/23 19:40:42;;;;;;;;;;;;;;;5.63;92.23438;103656.5;;;;-77
2022/01/23 19:45:37;;;;;;;;;;;;;;;5.61;92.25488;103654.1;;;;-77
2022/01/23 19:50:37;;;;;;;;;;;;;;;5.59;92.20313;103650.7;;;;-77
2022/01/23 19:55:39;;;;;;;;;;;;;;;5.57;92.27734;103650.9;;;;-80
2022/01/23 20:00:39;;;;;;;;;;;;;;;5.55;92.20605;103652.2;;;;-79
2022/01/23 20:00:51;;;;;;;23.4;10.8;;;;;;;;;;;;;-79
2022/01/23 20:05:38;;;;;;;;;;;;;;;5.53;92.23535;103650.2;;;;-77
2022/01/23 20:10:53;;;;;;;;;;;;;;;5.5;92.09863;103649.2;;;;-78
2022/01/23 20:15:38;;;;;;;;;;;;;;;5.49;92.16211;103646.8;;;;-78
2022/01/23 20:20:37;;;;;;;;;;;;;;;5.46;92.15625;103644.2;;;;-77
2022/01/23 20:25:37;;;;;;;;;;;;;;;5.44;92.13086;103639.3;;;;-78
2022/01/23 20:30:37;;;;;;;;;;;;;;;5.42;92.04883;103644.4;;;;-79
2022/01/23 20:30:47;;;;;;;20.8;9.4;;;;;;;;;;;;;-79
2022/01/23 20:35:37;;;;;;;;;;;;;;;5.4;91.80469;103639.1;;;;-80
2022/01/23 20:40:42;;;;;;;;;;;;;;;5.37;91.66895;103635.5;;;;-78
2022/01/23 20:45:37;;;;;;;;;;;;;;;5.35;91.49902;103636.4;;;;-77
2022/01/23 20:50:47;;;;;;;;;;;;;;;5.32;91.70215;103637.5;;;;-79
2022/01/23 20:55:37;;;;;;;;;;;;;;;5.3;91.48926;103635.9;;;;-80
2022/01/23 21:00:37;;;;;;;;;;;;;;;5.27;91.53809;103639.1;;;;-78
2022/01/23 21:00:47;;;;;;;16.8;7.8;;;;;;;;;;;;;-78
2022/01/23 21:05:37;;;;;;;;;;;;;;;5.25;91.67578;103634.5;;;;-77
2022/01/23 21:10:37;;;;;;;;;;;;;;;5.23;91.55078;103634.6;;;;-77
2022/01/23 21:20:42;;;;;;;;;;;;;;;5.2;91.59961;103630.5;;;;-78
2022/01/23 21:40:37;;;;;;;;;;;;;;;5.12;91.75781;103639;;;;-81
2022/01/23 21:45:37;;;;;;;;;;;;;;;5.1;91.44727;103634.9;;;;-80
2022/01/23 21:50:39;;;;;;;;;;;;;;;5.1;91.75195;103628.5;;;;-79
2022/01/23 21:55:37;;;;;;;;;;;;;;;5.08;91.75879;103626.7;;;;-76
2022/01/23 22:00:37;;;;;;;;;;;;;;;5.06;91.54883;103629.5;;;;-79
2022/01/23 22:00:54;;;;;;;15;7.5;;;;;;;;;;;;;-79
2022/01/23 22:05:37;;;;;;;;;;;;;;;5.05;91.58984;103632.1;;;;-79
2022/01/23 22:10:41;;;;;;;;;;;;;;;5.04;91.55566;103636.5;;;;-77
2022/01/23 22:20:38;;;;;;;;;;;;;;;5.02;91.57129;103629.6;;;;-80
2022/01/23 22:30:37;;;;;;;;;;;;;;;5;91.70898;103652.1;;;;-80
2022/01/23 22:30:46;;;;;;;15.2;7.4;;;;;;;;;;;;;-80
2022/01/23 22:35:37;;;;;;;;;;;;;;;4.99;91.62012;103654.4;;;;-79
2022/01/23 22:40:37;;;;;;;;;;;;;;;4.97;91.55078;103648.1;;;;-78
2022/01/23 22:45:57;;;;;;;;;;;;;;;4.97;91.36621;103651.5;;;;-79
2022/01/23 22:50:37;;;;;;;;;;;;;;;4.96;91.3291;103647.3;;;;-79
2022/01/23 22:55:37;;;;;;;;;;;;;;;4.95;91.54688;103646.1;;;;-80
2022/01/23 23:00:43;;;;;;;;;;;;;;;4.95;91.28418;103644.2;;;;-79
2022/01/23 23:00:53;;;;;;;16.8;8;;;;;;;;;;;;;-79
2022/01/23 23:05:37;;;;;;;;;;;;;;;4.93;91.26074;103648.3;;;;-79
2022/01/23 23:10:38;;;;;;;;;;;;;;;4.92;91.44336;103653.1;;;;-80
2022/01/23 23:15:41;;;;;;;;;;;;;;;4.92;91.56152;103654.1;;;;-79
2022/01/23 23:20:38;;;;;;;;;;;;;;;4.91;91.80957;103652.6;;;;-79
2022/01/23 23:25:37;;;;;;;;;;;;;;;4.9;91.94922;103646.1;;;;-79
2022/01/23 23:30:37;;;;;;;;;;;;;;;4.88;91.82324;103645.4;;;;-79
2022/01/23 23:30:46;;;;;;;15.2;7.3;;;;;;;;;;;;;-79
2022/01/23 23:35:37;;;;;;;;;;;;;;;4.87;91.79102;103643.6;;;;-79
2022/01/23 23:40:45;;;;;;;;;;;;;;;4.86;91.60254;103644.8;;;;-79
2022/01/23 23:45:37;;;;;;;;;;;;;;;4.85;91.91602;103638.6;;;;-79
2022/01/23 23:50:37;;;;;;;;;;;;;;;4.83;91.85742;103631.8;;;;-79
2022/01/23 23:55:37;;;;;;;;;;;;;;;4.83;91.8252;103634.4;;;;-78
